sensor_id;sensor_type;location;lat;lon;timestamp;temperature;humidity
55121;DHT22;41019;48.512;9.036;2022-11-15T00:01:54;5.80;99.50
55121;DHT22;41019;48.512;9.036;2022-11-15T00:04:39;5.80;99.10
55121;DHT22;41019;48.512;9.036;2022-11-15T00:07:24;5.70;99.00
55121;DHT22;41019;48.512;9.036;2022-11-15T00:10:12;5.60;98.80
55121;DHT22;41019;48.512;9.036;2022-11-15T00:12:56;5.60;98.80
55121;DHT22;41019;48.512;9.036;2022-11-15T00:15:41;5.50;99.10
55121;DHT22;41019;48.512;9.036;2022-11-15T00:18:26;5.50;98.90
55121;DHT22;41019;48.512;9.036;2022-11-15T00:21:13;5.40;98.60
55121;DHT22;41019;48.512;9.036;2022-11-15T00:23:58;5.40;98.80
55121;DHT22;41019;48.512;9.036;2022-11-15T00:26:43;5.30;98.60
55121;DHT22;41019;48.512;9.036;2022-11-15T00:29:27;5.30;98.70
55121;DHT22;41019;48.512;9.036;2022-11-15T00:32:12;5.20;98.40
55121;DHT22;41019;48.512;9.036;2022-11-15T00:34:56;5.20;98.70
55121;DHT22;41019;48.512;9.036;2022-11-15T00:37:42;5.20;98.70
55121;DHT22;41019;48.512;9.036;2022-11-15T00:40:27;5.20;98.80
55121;DHT22;41019;48.512;9.036;2022-11-15T00:43:11;5.20;98.90
55121;DHT22;41019;48.512;9.036;2022-11-15T00:45:56;5.10;99.10
55121;DHT22;41019;48.512;9.036;2022-11-15T00:48:40;5.10;98.90
55121;DHT22;41019;48.512;9.036;2022-11-15T00:51:25;5.10;99.10
55121;DHT22;41019;48.512;9.036;2022-11-15T00:54:10;5.00;99.00
55121;DHT22;41019;48.512;9.036;2022-11-15T00:56:54;5.00;98.80
55121;DHT22;41019;48.512;9.036;2022-11-15T00:59:38;4.90;98.90
55121;DHT22;41019;48.512;9.036;2022-11-15T01:02:23;4.90;99.00
55121;DHT22;41019;48.512;9.036;2022-11-15T01:05:08;4.90;99.00
55121;DHT22;41019;48.512;9.036;2022-11-15T01:07:54;4.90;99.30
55121;DHT22;41019;48.512;9.036;2022-11-15T01:10:39;4.90;99.50
55121;DHT22;41019;48.512;9.036;2022-11-15T01:13:24;4.90;99.70
55121;DHT22;41019;48.512;9.036;2022-11-15T01:16:15;4.90;99.70
55121;DHT22;41019;48.512;9.036;2022-11-15T01:19:01;4.90;99.70
55121;DHT22;41019;48.512;9.036;2022-11-15T01:21:49;4.90;99.70
55121;DHT22;41019;48.512;9.036;2022-11-15T01:24:34;4.90;99.70
55121;DHT22;41019;48.512;9.036;2022-11-15T01:27:19;4.90;99.60
55121;DHT22;41019;48.512;9.036;2022-11-15T01:30:04;4.90;99.60
55121;DHT22;41019;48.512;9.036;2022-11-15T01:32:49;4.90;99.70
55121;DHT22;41019;48.512;9.036;2022-11-15T01:35:38;4.80;99.70
55121;DHT22;41019;48.512;9.036;2022-11-15T01:38:23;4.80;99.90
55121;DHT22;41019;48.512;9.036;2022-11-15T01:41:17;4.90;99.90
55121;DHT22;41019;48.512;9.036;2022-11-15T01:47:28;4.90;99.90
55121;DHT22;41019;48.512;9.036;2022-11-15T01:50:17;5.00;99.90
55121;DHT22;41019;48.512;9.036;2022-11-15T01:53:05;5.00;99.90
55121;DHT22;41019;48.512;9.036;2022-11-15T01:55:49;5.00;99.90
55121;DHT22;41019;48.512;9.036;2022-11-15T01:58:36;5.00;99.90
55121;DHT22;41019;48.512;9.036;2022-11-15T02:01:21;5.00;99.90
55121;DHT22;41019;48.512;9.036;2022-11-15T02:04:16;5.10;99.90
55121;DHT22;41019;48.512;9.036;2022-11-15T02:07:05;5.10;99.90
55121;DHT22;41019;48.512;9.036;2022-11-15T02:09:51;5.10;99.90
55121;DHT22;41019;48.512;9.036;2022-11-15T02:12:36;5.10;99.90
55121;DHT22;41019;48.512;9.036;2022-11-15T02:15:24;5.10;99.90
55121;DHT22;41019;48.512;9.036;2022-11-15T02:18:24;5.10;99.90
55121;DHT22;41019;48.512;9.036;2022-11-15T02:21:28;5.10;99.90
55121;DHT22;41019;48.512;9.036;2022-11-15T02:31:09;5.20;99.90
55121;DHT22;41019;48.512;9.036;2022-11-15T02:37:03;5.20;99.90
55121;DHT22;41019;48.512;9.036;2022-11-15T02:40:06;5.10;99.90
55121;DHT22;41019;48.512;9.036;2022-11-15T02:43:00;5.10;99.90
55121;DHT22;41019;48.512;9.036;2022-11-15T02:48:57;5.10;99.90
55121;DHT22;41019;48.512;9.036;2022-11-15T02:51:45;5.00;99.90
55121;DHT22;41019;48.512;9.036;2022-11-15T02:54:33;5.00;99.90
55121;DHT22;41019;48.512;9.036;2022-11-15T03:00:34;5.00;99.90
55121;DHT22;41019;48.512;9.036;2022-11-15T03:12:28;5.00;99.90
55121;DHT22;41019;48.512;9.036;2022-11-15T03:15:23;5.00;99.90
55121;DHT22;41019;48.512;9.036;2022-11-15T03:18:21;5.00;99.90
55121;DHT22;41019;48.512;9.036;2022-11-15T03:21:09;5.10;99.90
55121;DHT22;41019;48.512;9.036;2022-11-15T03:24:01;5.10;99.90
55121;DHT22;41019;48.512;9.036;2022-11-15T03:26:49;5.10;99.90
55121;DHT22;41019;48.512;9.036;2022-11-15T03:29:39;5.10;99.90
55121;DHT22;41019;48.512;9.036;2022-11-15T03:32:32;5.10;99.90
55121;DHT22;41019;48.512;9.036;2022-11-15T03:35:22;5.20;99.90
55121;DHT22;41019;48.512;9.036;2022-11-15T03:38:29;5.20;99.90
55121;DHT22;41019;48.512;9.036;2022-11-15T03:41:31;5.20;99.90
55121;DHT22;41019;48.512;9.036;2022-11-15T03:47:31;5.10;99.90
55121;DHT22;41019;48.512;9.036;2022-11-15T03:50:22;5.00;99.90
55121;DHT22;41019;48.512;9.036;2022-11-15T03:53:07;5.00;99.90
55121;DHT22;41019;48.512;9.036;2022-11-15T03:55:52;5.00;99.90
55121;DHT22;41019;48.512;9.036;2022-11-15T03:58:37;5.00;99.90
55121;DHT22;41019;48.512;9.036;2022-11-15T04:01:22;4.90;99.90
55121;DHT22;41019;48.512;9.036;2022-11-15T04:04:08;4.90;99.90
55121;DHT22;41019;48.512;9.036;2022-11-15T04:06:53;4.90;99.90
55121;DHT22;41019;48.512;9.036;2022-11-15T04:09:38;4.90;99.90
55121;DHT22;41019;48.512;9.036;2022-11-15T04:12:44;4.90;99.90
55121;DHT22;41019;48.512;9.036;2022-11-15T04:15:32;5.00;99.90
55121;DHT22;41019;48.512;9.036;2022-11-15T04:18:17;5.00;99.90
55121;DHT22;41019;48.512;9.036;2022-11-15T04:21:02;5.00;99.90
55121;DHT22;41019;48.512;9.036;2022-11-15T04:24:05;5.00;99.90
55121;DHT22;41019;48.512;9.036;2022-11-15T04:26:59;5.00;99.90
55121;DHT22;41019;48.512;9.036;2022-11-15T04:29:44;5.00;99.90
55121;DHT22;41019;48.512;9.036;2022-11-15T04:32:29;5.10;99.90
55121;DHT22;41019;48.512;9.036;2022-11-15T04:35:13;5.10;99.90
55121;DHT22;41019;48.512;9.036;2022-11-15T04:37:58;5.10;99.90
55121;DHT22;41019;48.512;9.036;2022-11-15T04:40:43;5.10;99.90
55121;DHT22;41019;48.512;9.036;2022-11-15T04:43:29;5.00;99.90
55121;DHT22;41019;48.512;9.036;2022-11-15T04:46:14;5.00;99.70
55121;DHT22;41019;48.512;9.036;2022-11-15T04:48:59;5.00;99.70
55121;DHT22;41019;48.512;9.036;2022-11-15T04:51:44;5.00;99.80
55121;DHT22;41019;48.512;9.036;2022-11-15T04:54:29;5.00;99.80
55121;DHT22;41019;48.512;9.036;2022-11-15T04:57:14;5.00;99.70
55121;DHT22;41019;48.512;9.036;2022-11-15T04:59:59;5.00;99.90
55121;DHT22;41019;48.512;9.036;2022-11-15T05:02:44;5.00;99.90
55121;DHT22;41019;48.512;9.036;2022-11-15T05:05:47;5.00;99.90
55121;DHT22;41019;48.512;9.036;2022-11-15T05:08:32;5.00;99.90
55121;DHT22;41019;48.512;9.036;2022-11-15T05:11:17;5.00;99.90
55121;DHT22;41019;48.512;9.036;2022-11-15T05:14:03;5.00;99.90
55121;DHT22;41019;48.512;9.036;2022-11-15T05:16:49;5.00;99.90
55121;DHT22;41019;48.512;9.036;2022-11-15T05:19:33;5.10;99.90
55121;DHT22;41019;48.512;9.036;2022-11-15T05:22:19;5.10;99.90
55121;DHT22;41019;48.512;9.036;2022-11-15T05:25:05;5.10;99.90
55121;DHT22;41019;48.512;9.036;2022-11-15T05:27:49;5.10;99.90
55121;DHT22;41019;48.512;9.036;2022-11-15T05:30:33;5.10;99.90
55121;DHT22;41019;48.512;9.036;2022-11-15T05:33:18;5.10;99.90
55121;DHT22;41019;48.512;9.036;2022-11-15T05:36:31;5.10;99.90
55121;DHT22;41019;48.512;9.036;2022-11-15T05:39:18;5.10;99.90
55121;DHT22;41019;48.512;9.036;2022-11-15T05:42:14;5.10;99.90
55121;DHT22;41019;48.512;9.036;2022-11-15T05:45:03;5.10;99.90
55121;DHT22;41019;48.512;9.036;2022-11-15T05:47:52;5.10;99.90
55121;DHT22;41019;48.512;9.036;2022-11-15T05:50:43;5.10;99.90
55121;DHT22;41019;48.512;9.036;2022-11-15T05:53:30;5.10;99.90
55121;DHT22;41019;48.512;9.036;2022-11-15T05:56:16;5.10;99.90
55121;DHT22;41019;48.512;9.036;2022-11-15T05:59:02;5.10;99.90
55121;DHT22;41019;48.512;9.036;2022-11-15T06:01:48;5.10;99.90
55121;DHT22;41019;48.512;9.036;2022-11-15T06:04:33;5.10;99.90
55121;DHT22;41019;48.512;9.036;2022-11-15T06:07:17;5.00;99.50
55121;DHT22;41019;48.512;9.036;2022-11-15T06:10:01;5.00;99.70
55121;DHT22;41019;48.512;9.036;2022-11-15T06:12:45;5.00;99.80
55121;DHT22;41019;48.512;9.036;2022-11-15T06:15:32;5.00;99.80
55121;DHT22;41019;48.512;9.036;2022-11-15T06:18:18;5.00;99.90
55121;DHT22;41019;48.512;9.036;2022-11-15T06:21:04;4.90;99.90
55121;DHT22;41019;48.512;9.036;2022-11-15T06:23:48;5.00;99.90
55121;DHT22;41019;48.512;9.036;2022-11-15T06:26:33;5.00;99.90
55121;DHT22;41019;48.512;9.036;2022-11-15T06:29:18;5.00;99.90
55121;DHT22;41019;48.512;9.036;2022-11-15T06:32:02;5.00;99.90
55121;DHT22;41019;48.512;9.036;2022-11-15T06:34:47;5.10;99.90
55121;DHT22;41019;48.512;9.036;2022-11-15T06:37:31;5.10;99.90
55121;DHT22;41019;48.512;9.036;2022-11-15T06:40:17;5.20;99.90
55121;DHT22;41019;48.512;9.036;2022-11-15T06:43:02;5.20;99.90
55121;DHT22;41019;48.512;9.036;2022-11-15T06:45:46;5.20;99.90
55121;DHT22;41019;48.512;9.036;2022-11-15T06:48:33;5.30;99.90
55121;DHT22;41019;48.512;9.036;2022-11-15T06:51:17;5.30;99.90
55121;DHT22;41019;48.512;9.036;2022-11-15T06:54:02;5.40;99.90
55121;DHT22;41019;48.512;9.036;2022-11-15T06:56:46;5.40;99.90
55121;DHT22;41019;48.512;9.036;2022-11-15T06:59:31;5.40;99.90
55121;DHT22;41019;48.512;9.036;2022-11-15T07:02:16;5.50;99.90
55121;DHT22;41019;48.512;9.036;2022-11-15T07:05:01;5.50;99.90
55121;DHT22;41019;48.512;9.036;2022-11-15T07:07:51;5.60;99.90
55121;DHT22;41019;48.512;9.036;2022-11-15T07:10:37;5.60;99.90
55121;DHT22;41019;48.512;9.036;2022-11-15T07:13:24;5.70;99.90
55121;DHT22;41019;48.512;9.036;2022-11-15T07:16:10;5.70;99.90
55121;DHT22;41019;48.512;9.036;2022-11-15T07:18:55;5.80;99.90
55121;DHT22;41019;48.512;9.036;2022-11-15T07:21:39;5.80;99.90
55121;DHT22;41019;48.512;9.036;2022-11-15T07:24:24;5.80;99.90
55121;DHT22;41019;48.512;9.036;2022-11-15T07:27:08;5.90;99.90
55121;DHT22;41019;48.512;9.036;2022-11-15T07:29:53;5.90;99.90
55121;DHT22;41019;48.512;9.036;2022-11-15T07:32:38;6.00;99.90
55121;DHT22;41019;48.512;9.036;2022-11-15T07:35:24;6.00;99.90
55121;DHT22;41019;48.512;9.036;2022-11-15T07:38:08;6.00;99.90
55121;DHT22;41019;48.512;9.036;2022-11-15T07:40:58;6.10;99.90
55121;DHT22;41019;48.512;9.036;2022-11-15T07:43:42;6.20;99.90
55121;DHT22;41019;48.512;9.036;2022-11-15T07:46:27;6.30;99.90
55121;DHT22;41019;48.512;9.036;2022-11-15T07:49:11;6.40;99.90
55121;DHT22;41019;48.512;9.036;2022-11-15T07:51:55;6.40;99.90
55121;DHT22;41019;48.512;9.036;2022-11-15T07:54:40;6.50;99.90
55121;DHT22;41019;48.512;9.036;2022-11-15T07:57:25;6.50;99.90
55121;DHT22;41019;48.512;9.036;2022-11-15T08:00:10;6.60;99.90
55121;DHT22;41019;48.512;9.036;2022-11-15T08:05:51;6.60;99.70
55121;DHT22;41019;48.512;9.036;2022-11-15T08:08:36;6.60;99.70
55121;DHT22;41019;48.512;9.036;2022-11-15T08:11:20;6.70;99.70
55121;DHT22;41019;48.512;9.036;2022-11-15T08:14:05;6.70;99.50
55121;DHT22;41019;48.512;9.036;2022-11-15T08:16:49;6.80;99.50
55121;DHT22;41019;48.512;9.036;2022-11-15T08:19:33;6.80;99.40
55121;DHT22;41019;48.512;9.036;2022-11-15T08:22:18;6.80;99.70
55121;DHT22;41019;48.512;9.036;2022-11-15T08:25:03;6.90;99.90
55121;DHT22;41019;48.512;9.036;2022-11-15T08:27:51;6.90;99.90
55121;DHT22;41019;48.512;9.036;2022-11-15T08:30:39;7.00;99.80
55121;DHT22;41019;48.512;9.036;2022-11-15T08:33:25;7.10;99.90
55121;DHT22;41019;48.512;9.036;2022-11-15T08:36:16;7.10;99.80
55121;DHT22;41019;48.512;9.036;2022-11-15T08:39:02;7.20;99.70
55121;DHT22;41019;48.512;9.036;2022-11-15T08:41:46;7.20;99.80
55121;DHT22;41019;48.512;9.036;2022-11-15T08:44:30;7.30;99.80
55121;DHT22;41019;48.512;9.036;2022-11-15T08:47:14;7.30;99.80
55121;DHT22;41019;48.512;9.036;2022-11-15T08:49:58;7.40;99.90
55121;DHT22;41019;48.512;9.036;2022-11-15T08:52:43;7.50;99.90
55121;DHT22;41019;48.512;9.036;2022-11-15T08:55:28;7.50;99.80
55121;DHT22;41019;48.512;9.036;2022-11-15T08:58:12;7.70;99.90
55121;DHT22;41019;48.512;9.036;2022-11-15T09:00:57;7.80;99.60
55121;DHT22;41019;48.512;9.036;2022-11-15T09:03:41;7.90;99.50
55121;DHT22;41019;48.512;9.036;2022-11-15T09:06:26;8.00;99.50
55121;DHT22;41019;48.512;9.036;2022-11-15T09:09:11;8.20;99.10
55121;DHT22;41019;48.512;9.036;2022-11-15T09:11:55;8.30;99.10
55121;DHT22;41019;48.512;9.036;2022-11-15T09:14:39;8.30;98.90
55121;DHT22;41019;48.512;9.036;2022-11-15T09:17:23;8.40;98.70
55121;DHT22;41019;48.512;9.036;2022-11-15T09:20:08;8.50;98.90
55121;DHT22;41019;48.512;9.036;2022-11-15T09:22:53;8.60;99.00
55121;DHT22;41019;48.512;9.036;2022-11-15T09:25:37;8.70;98.30
55121;DHT22;41019;48.512;9.036;2022-11-15T09:28:21;8.80;98.40
55121;DHT22;41019;48.512;9.036;2022-11-15T09:31:06;8.90;98.00
55121;DHT22;41019;48.512;9.036;2022-11-15T09:33:50;9.00;97.40
55121;DHT22;41019;48.512;9.036;2022-11-15T09:36:34;9.00;97.60
55121;DHT22;41019;48.512;9.036;2022-11-15T09:39:19;9.10;97.90
55121;DHT22;41019;48.512;9.036;2022-11-15T09:42:31;9.10;97.80
55121;DHT22;41019;48.512;9.036;2022-11-15T09:48:51;9.30;98.00
55121;DHT22;41019;48.512;9.036;2022-11-15T09:51:36;9.30;97.60
55121;DHT22;41019;48.512;9.036;2022-11-15T09:56:41;9.50;97.40
55121;DHT22;41019;48.512;9.036;2022-11-15T10:02:13;9.60;97.80
55121;DHT22;41019;48.512;9.036;2022-11-15T10:04:42;9.70;97.30
55121;DHT22;41019;48.512;9.036;2022-11-15T10:07:31;9.70;96.70
55121;DHT22;41019;48.512;9.036;2022-11-15T10:10:25;9.80;96.80
55121;DHT22;41019;48.512;9.036;2022-11-15T10:12:53;9.80;97.30
55121;DHT22;41019;48.512;9.036;2022-11-15T10:15:21;9.90;97.10
55121;DHT22;41019;48.512;9.036;2022-11-15T10:17:53;10.00;96.70
55121;DHT22;41019;48.512;9.036;2022-11-15T10:20:25;10.00;97.00
55121;DHT22;41019;48.512;9.036;2022-11-15T10:23:06;10.10;96.90
55121;DHT22;41019;48.512;9.036;2022-11-15T10:25:36;10.10;96.70
55121;DHT22;41019;48.512;9.036;2022-11-15T10:30:51;10.20;96.70
55121;DHT22;41019;48.512;9.036;2022-11-15T10:33:36;10.30;97.10
55121;DHT22;41019;48.512;9.036;2022-11-15T10:44:02;10.60;96.60
55121;DHT22;41019;48.512;9.036;2022-11-15T10:46:28;10.70;96.70
55121;DHT22;41019;48.512;9.036;2022-11-15T10:49:13;10.70;96.00
55121;DHT22;41019;48.512;9.036;2022-11-15T10:52:12;10.80;96.20
55121;DHT22;41019;48.512;9.036;2022-11-15T10:54:46;10.80;95.80
55121;DHT22;41019;48.512;9.036;2022-11-15T10:57:22;10.80;96.00
55121;DHT22;41019;48.512;9.036;2022-11-15T10:59:53;10.90;95.30
55121;DHT22;41019;48.512;9.036;2022-11-15T11:02:38;10.90;95.70
55121;DHT22;41019;48.512;9.036;2022-11-15T11:10:27;11.10;95.40
55121;DHT22;41019;48.512;9.036;2022-11-15T11:12:53;11.10;95.00
55121;DHT22;41019;48.512;9.036;2022-11-15T11:15:19;11.10;94.80
55121;DHT22;41019;48.512;9.036;2022-11-15T11:18:07;11.10;95.00
55121;DHT22;41019;48.512;9.036;2022-11-15T11:21:08;11.20;94.90
55121;DHT22;41019;48.512;9.036;2022-11-15T11:35:14;11.60;94.90
55121;DHT22;41019;48.512;9.036;2022-11-15T11:37:59;11.60;94.60
55121;DHT22;41019;48.512;9.036;2022-11-15T11:40:44;11.70;94.20
55121;DHT22;41019;48.512;9.036;2022-11-15T11:48:44;11.80;93.50
55121;DHT22;41019;48.512;9.036;2022-11-15T11:51:27;11.90;93.40
55121;DHT22;41019;48.512;9.036;2022-11-15T11:56:44;12.00;93.20
55121;DHT22;41019;48.512;9.036;2022-11-15T11:59:31;12.00;93.40
55121;DHT22;41019;48.512;9.036;2022-11-15T12:02:28;12.10;93.60
55121;DHT22;41019;48.512;9.036;2022-11-15T12:05:09;12.10;93.50
55121;DHT22;41019;48.512;9.036;2022-11-15T12:07:39;12.10;92.70
55121;DHT22;41019;48.512;9.036;2022-11-15T12:10:23;12.10;92.80
55121;DHT22;41019;48.512;9.036;2022-11-15T12:13:09;12.10;93.20
55121;DHT22;41019;48.512;9.036;2022-11-15T12:15:53;12.20;93.10
55121;DHT22;41019;48.512;9.036;2022-11-15T12:18:22;12.20;93.90
55121;DHT22;41019;48.512;9.036;2022-11-15T12:20:58;12.20;93.60
55121;DHT22;41019;48.512;9.036;2022-11-15T12:23:35;12.30;93.50
55121;DHT22;41019;48.512;9.036;2022-11-15T12:26:16;12.40;93.20
55121;DHT22;41019;48.512;9.036;2022-11-15T12:29:01;12.40;93.20
55121;DHT22;41019;48.512;9.036;2022-11-15T12:36:48;12.60;92.80
55121;DHT22;41019;48.512;9.036;2022-11-15T12:39:15;12.60;93.00
55121;DHT22;41019;48.512;9.036;2022-11-15T12:47:22;12.70;91.40
55121;DHT22;41019;48.512;9.036;2022-11-15T12:49:49;12.70;91.40
55121;DHT22;41019;48.512;9.036;2022-11-15T12:52:16;12.70;91.30
55121;DHT22;41019;48.512;9.036;2022-11-15T12:59:58;12.80;91.20
55121;DHT22;41019;48.512;9.036;2022-11-15T13:02:42;12.80;91.30
55121;DHT22;41019;48.512;9.036;2022-11-15T13:10:32;12.80;91.10
55121;DHT22;41019;48.512;9.036;2022-11-15T13:13:09;12.80;91.30
55121;DHT22;41019;48.512;9.036;2022-11-15T13:15:54;12.80;91.00
55121;DHT22;41019;48.512;9.036;2022-11-15T13:18:37;12.90;90.40
55121;DHT22;41019;48.512;9.036;2022-11-15T13:21:22;12.90;90.60
55121;DHT22;41019;48.512;9.036;2022-11-15T13:24:16;12.90;91.20
55121;DHT22;41019;48.512;9.036;2022-11-15T13:26:42;12.90;91.30
55121;DHT22;41019;48.512;9.036;2022-11-15T13:29:19;12.90;91.80
55121;DHT22;41019;48.512;9.036;2022-11-15T13:31:46;12.90;93.00
55121;DHT22;41019;48.512;9.036;2022-11-15T13:34:31;12.90;93.80
55121;DHT22;41019;48.512;9.036;2022-11-15T13:36:59;12.90;94.00
55121;DHT22;41019;48.512;9.036;2022-11-15T13:39:34;12.90;93.60
55121;DHT22;41019;48.512;9.036;2022-11-15T13:42:03;12.90;93.50
55121;DHT22;41019;48.512;9.036;2022-11-15T13:44:31;12.90;93.10
55121;DHT22;41019;48.512;9.036;2022-11-15T13:49:36;12.90;93.50
55121;DHT22;41019;48.512;9.036;2022-11-15T13:52:07;12.90;93.40
55121;DHT22;41019;48.512;9.036;2022-11-15T13:54:47;12.90;93.80
55121;DHT22;41019;48.512;9.036;2022-11-15T13:57:22;12.90;94.50
55121;DHT22;41019;48.512;9.036;2022-11-15T13:59:50;12.90;94.80
55121;DHT22;41019;48.512;9.036;2022-11-15T14:02:21;12.90;95.10
55121;DHT22;41019;48.512;9.036;2022-11-15T14:04:58;12.90;95.40
55121;DHT22;41019;48.512;9.036;2022-11-15T14:07:27;12.90;94.80
55121;DHT22;41019;48.512;9.036;2022-11-15T14:09:55;12.90;95.50
55121;DHT22;41019;48.512;9.036;2022-11-15T14:12:28;12.90;95.20
55121;DHT22;41019;48.512;9.036;2022-11-15T14:14:55;12.90;95.30
55121;DHT22;41019;48.512;9.036;2022-11-15T14:19:57;12.90;95.40
55121;DHT22;41019;48.512;9.036;2022-11-15T14:22:30;12.90;94.90
55121;DHT22;41019;48.512;9.036;2022-11-15T14:25:18;12.90;95.20
55121;DHT22;41019;48.512;9.036;2022-11-15T14:30:38;12.90;96.20
55121;DHT22;41019;48.512;9.036;2022-11-15T14:33:30;12.90;96.40
55121;DHT22;41019;48.512;9.036;2022-11-15T14:36:18;12.80;96.70
55121;DHT22;41019;48.512;9.036;2022-11-15T14:38:45;12.80;96.10
55121;DHT22;41019;48.512;9.036;2022-11-15T14:41:24;12.70;96.40
55121;DHT22;41019;48.512;9.036;2022-11-15T14:43:52;12.70;97.00
55121;DHT22;41019;48.512;9.036;2022-11-15T14:46:18;12.60;97.20
55121;DHT22;41019;48.512;9.036;2022-11-15T14:48:45;12.60;97.10
55121;DHT22;41019;48.512;9.036;2022-11-15T14:51:17;12.60;97.60
55121;DHT22;41019;48.512;9.036;2022-11-15T14:53:44;12.50;97.90
55121;DHT22;41019;48.512;9.036;2022-11-15T14:56:10;12.50;98.10
55121;DHT22;41019;48.512;9.036;2022-11-15T14:58:36;12.50;98.30
55121;DHT22;41019;48.512;9.036;2022-11-15T15:01:19;12.40;98.40
55121;DHT22;41019;48.512;9.036;2022-11-15T15:03:45;12.40;98.30
55121;DHT22;41019;48.512;9.036;2022-11-15T15:06:11;12.30;98.50
55121;DHT22;41019;48.512;9.036;2022-11-15T15:08:40;12.30;98.50
55121;DHT22;41019;48.512;9.036;2022-11-15T15:11:25;12.30;98.70
55121;DHT22;41019;48.512;9.036;2022-11-15T15:13:52;12.30;98.80
55121;DHT22;41019;48.512;9.036;2022-11-15T15:16:18;12.20;98.80
55121;DHT22;41019;48.512;9.036;2022-11-15T15:18:44;12.20;98.80
55121;DHT22;41019;48.512;9.036;2022-11-15T15:21:26;12.10;98.90
55121;DHT22;41019;48.512;9.036;2022-11-15T15:23:56;12.00;98.70
55121;DHT22;41019;48.512;9.036;2022-11-15T15:26:25;12.00;98.70
55121;DHT22;41019;48.512;9.036;2022-11-15T15:28:51;12.00;98.90
55121;DHT22;41019;48.512;9.036;2022-11-15T15:31:18;11.90;98.80
55121;DHT22;41019;48.512;9.036;2022-11-15T15:33:50;11.90;98.70
55121;DHT22;41019;48.512;9.036;2022-11-15T15:36:21;11.80;98.60
55121;DHT22;41019;48.512;9.036;2022-11-15T15:38:47;11.80;98.80
55121;DHT22;41019;48.512;9.036;2022-11-15T15:41:15;11.80;98.90
55121;DHT22;41019;48.512;9.036;2022-11-15T15:43:41;11.80;99.10
55121;DHT22;41019;48.512;9.036;2022-11-15T15:46:13;11.80;99.20
55121;DHT22;41019;48.512;9.036;2022-11-15T15:48:39;11.70;99.30
55121;DHT22;41019;48.512;9.036;2022-11-15T15:51:06;11.70;99.60
55121;DHT22;41019;48.512;9.036;2022-11-15T15:53:31;11.70;99.70
55121;DHT22;41019;48.512;9.036;2022-11-15T15:55:58;11.60;99.70
55121;DHT22;41019;48.512;9.036;2022-11-15T15:58:24;11.60;99.80
55121;DHT22;41019;48.512;9.036;2022-11-15T16:00:50;11.60;99.80
55121;DHT22;41019;48.512;9.036;2022-11-15T16:03:16;11.60;99.90
55121;DHT22;41019;48.512;9.036;2022-11-15T16:05:41;11.50;99.90
55121;DHT22;41019;48.512;9.036;2022-11-15T16:08:24;11.50;99.90
55121;DHT22;41019;48.512;9.036;2022-11-15T16:10:50;11.50;99.90
55121;DHT22;41019;48.512;9.036;2022-11-15T16:13:16;11.40;99.90
55121;DHT22;41019;48.512;9.036;2022-11-15T16:15:44;11.40;99.90
55121;DHT22;41019;48.512;9.036;2022-11-15T16:18:16;11.40;99.90
55121;DHT22;41019;48.512;9.036;2022-11-15T16:20:48;11.40;99.90
55121;DHT22;41019;48.512;9.036;2022-11-15T16:23:22;11.40;99.90
55121;DHT22;41019;48.512;9.036;2022-11-15T16:25:53;11.40;99.90
55121;DHT22;41019;48.512;9.036;2022-11-15T16:28:29;11.30;99.90
55121;DHT22;41019;48.512;9.036;2022-11-15T16:33:26;11.30;99.90
55121;DHT22;41019;48.512;9.036;2022-11-15T16:35:52;11.20;99.90
55121;DHT22;41019;48.512;9.036;2022-11-15T16:38:18;11.30;99.90
55121;DHT22;41019;48.512;9.036;2022-11-15T16:40:44;11.30;99.90
55121;DHT22;41019;48.512;9.036;2022-11-15T16:43:10;11.20;99.90
55121;DHT22;41019;48.512;9.036;2022-11-15T16:45:36;11.30;99.90
55121;DHT22;41019;48.512;9.036;2022-11-15T16:48:03;11.20;99.90
55121;DHT22;41019;48.512;9.036;2022-11-15T16:50:32;11.20;99.90
55121;DHT22;41019;48.512;9.036;2022-11-15T16:53:00;11.20;99.90
55121;DHT22;41019;48.512;9.036;2022-11-15T16:55:28;11.20;99.90
55121;DHT22;41019;48.512;9.036;2022-11-15T16:57:55;11.20;99.90
55121;DHT22;41019;48.512;9.036;2022-11-15T17:00:24;11.20;99.90
55121;DHT22;41019;48.512;9.036;2022-11-15T17:02:51;11.20;99.90
55121;DHT22;41019;48.512;9.036;2022-11-15T17:05:19;11.10;99.90
55121;DHT22;41019;48.512;9.036;2022-11-15T17:07:47;11.10;99.90
55121;DHT22;41019;48.512;9.036;2022-11-15T17:10:20;11.10;99.90
55121;DHT22;41019;48.512;9.036;2022-11-15T17:12:46;11.10;99.90
55121;DHT22;41019;48.512;9.036;2022-11-15T17:15:12;11.00;99.90
55121;DHT22;41019;48.512;9.036;2022-11-15T17:17:39;11.00;99.90
55121;DHT22;41019;48.512;9.036;2022-11-15T17:20:10;11.00;99.90
55121;DHT22;41019;48.512;9.036;2022-11-15T17:22:38;11.00;99.90
55121;DHT22;41019;48.512;9.036;2022-11-15T17:25:04;11.00;99.90
55121;DHT22;41019;48.512;9.036;2022-11-15T17:27:30;10.90;99.90
55121;DHT22;41019;48.512;9.036;2022-11-15T17:29:56;10.90;99.90
55121;DHT22;41019;48.512;9.036;2022-11-15T17:32:22;10.90;99.90
55121;DHT22;41019;48.512;9.036;2022-11-15T17:34:48;10.90;99.90
55121;DHT22;41019;48.512;9.036;2022-11-15T17:37:13;10.80;99.90
55121;DHT22;41019;48.512;9.036;2022-11-15T17:39:39;10.80;99.90
55121;DHT22;41019;48.512;9.036;2022-11-15T17:42:05;10.80;99.90
55121;DHT22;41019;48.512;9.036;2022-11-15T17:44:31;10.80;99.90
55121;DHT22;41019;48.512;9.036;2022-11-15T17:46:57;10.80;99.90
55121;DHT22;41019;48.512;9.036;2022-11-15T17:49:23;10.80;99.90
55121;DHT22;41019;48.512;9.036;2022-11-15T17:51:49;10.80;99.90
55121;DHT22;41019;48.512;9.036;2022-11-15T17:54:15;10.80;99.90
55121;DHT22;41019;48.512;9.036;2022-11-15T17:56:41;10.80;99.90
55121;DHT22;41019;48.512;9.036;2022-11-15T17:59:08;10.80;99.90
55121;DHT22;41019;48.512;9.036;2022-11-15T18:01:36;10.70;99.90
55121;DHT22;41019;48.512;9.036;2022-11-15T18:04:04;10.80;99.90
55121;DHT22;41019;48.512;9.036;2022-11-15T18:06:33;10.70;99.90
55121;DHT22;41019;48.512;9.036;2022-11-15T18:09:01;10.70;99.90
55121;DHT22;41019;48.512;9.036;2022-11-15T18:11:29;10.70;99.90
55121;DHT22;41019;48.512;9.036;2022-11-15T18:13:58;10.70;99.90
55121;DHT22;41019;48.512;9.036;2022-11-15T18:16:25;10.70;99.90
55121;DHT22;41019;48.512;9.036;2022-11-15T18:18:53;10.70;99.90
55121;DHT22;41019;48.512;9.036;2022-11-15T18:21:21;10.70;99.90
55121;DHT22;41019;48.512;9.036;2022-11-15T18:23:51;10.60;99.90
55121;DHT22;41019;48.512;9.036;2022-11-15T18:26:18;10.60;99.90
55121;DHT22;41019;48.512;9.036;2022-11-15T18:28:46;10.60;99.90
55121;DHT22;41019;48.512;9.036;2022-11-15T18:31:19;10.60;99.90
55121;DHT22;41019;48.512;9.036;2022-11-15T18:33:47;10.60;99.90
55121;DHT22;41019;48.512;9.036;2022-11-15T18:36:19;10.60;99.90
55121;DHT22;41019;48.512;9.036;2022-11-15T18:38:45;10.60;99.90
55121;DHT22;41019;48.512;9.036;2022-11-15T18:41:14;10.60;99.90
55121;DHT22;41019;48.512;9.036;2022-11-15T18:43:43;10.60;99.90
55121;DHT22;41019;48.512;9.036;2022-11-15T18:46:13;10.60;99.90
55121;DHT22;41019;48.512;9.036;2022-11-15T18:48:40;10.50;99.90
55121;DHT22;41019;48.512;9.036;2022-11-15T18:51:09;10.60;99.90